Time;durP1;ratioP1;P1;durP2;ratioP2;P2;SDS_P1;SDS_P2;PMS_P1;PMS_P2;Temp;Humidity;BMP_temperature;BMP_pressure;BME280_temperature;BME280_humidity;BME280_pressure;Samples;Min_cycle;Max_cycle;Signal;HPM_P1;HPM_P2
2021/05/11 00:01:56;;;;;;;4.30;2.70;;;13.00;99.90;;;;;;5077706;28;20187;-61
2021/05/11 00:04:22;;;;;;;2.70;2.50;;;13.00;99.90;;;;;;5078123;28;20190;-61
2021/05/11 00:06:48;;;;;;;2.97;2.70;;;12.90;99.90;;;;;;5077640;28;20624;-63
2021/05/11 00:09:14;;;;;;;2.83;2.33;;;13.00;99.90;;;;;;5077166;28;20639;-61
2021/05/11 00:11:39;;;;;;;3.80;3.50;;;12.90;99.90;;;;;;5075909;28;20190;-62
2021/05/11 00:14:06;;;;;;;3.73;3.43;;;12.80;99.90;;;;;;5078944;28;20246;-62
2021/05/11 00:16:35;;;;;;;3.90;3.60;;;12.80;99.90;;;;;;5077186;28;20175;-62
2021/05/11 00:19:07;;;;;;;3.10;2.90;;;12.80;99.90;;;;;;5076462;28;20582;-61
2021/05/11 00:21:33;;;;;;;6.90;6.20;;;12.80;99.90;;;;;;5076584;28;20508;-62
2021/05/11 00:23:59;;;;;;;4.20;3.90;;;12.80;99.90;;;;;;5076782;28;20398;-61
2021/05/11 00:26:25;;;;;;;4.43;4.13;;;12.80;99.90;;;;;;5077031;28;20484;-61
2021/05/11 00:28:50;;;;;;;3.67;3.43;;;12.80;99.90;;;;;;5076176;28;20199;-61
2021/05/11 00:31:16;;;;;;;4.40;4.10;;;12.80;99.90;;;;;;5076838;28;20199;-62
2021/05/11 00:33:41;;;;;;;3.57;3.30;;;12.80;99.90;;;;;;5076557;28;20217;-62
2021/05/11 00:36:07;;;;;;;4.47;4.17;;;12.80;99.90;;;;;;5080005;28;20710;-61
2021/05/11 00:38:32;;;;;;;3.43;3.23;;;12.80;99.90;;;;;;5080358;28;20214;-62
2021/05/11 00:40:58;;;;;;;4.10;3.70;;;12.80;99.90;;;;;;5080357;28;20194;-62
2021/05/11 00:43:23;;;;;;;3.93;3.63;;;12.80;99.90;;;;;;5079943;28;20194;-62
2021/05/11 00:45:49;;;;;;;4.40;4.00;;;12.80;99.90;;;;;;5080612;28;20217;-62
2021/05/11 00:48:15;;;;;;;3.87;3.50;;;12.70;99.90;;;;;;5079995;28;20171;-62
2021/05/11 00:50:40;;;;;;;4.83;4.43;;;12.60;99.90;;;;;;5079675;28;20435;-62
2021/05/11 00:53:06;;;;;;;3.90;3.60;;;12.60;99.90;;;;;;5080163;28;20220;-62
2021/05/11 00:55:32;;;;;;;4.20;4.00;;;12.60;99.90;;;;;;5080267;28;20209;-61
2021/05/11 00:57:58;;;;;;;6.73;4.03;;;12.60;99.90;;;;;;5080429;28;20206;-62
2021/05/11 01:00:24;;;;;;;4.50;4.10;;;12.60;99.90;;;;;;5079536;28;20937;-62
2021/05/11 01:02:49;;;;;;;3.63;3.33;;;12.60;99.90;;;;;;5079954;28;20191;-62
2021/05/11 01:05:16;;;;;;;3.80;3.50;;;12.60;99.90;;;;;;5080025;28;20223;-62
2021/05/11 01:07:41;;;;;;;4.73;3.50;;;12.50;99.90;;;;;;5079556;28;20167;-62
2021/05/11 01:10:07;;;;;;;4.50;4.13;;;12.50;99.90;;;;;;5078400;28;20450;-62
2021/05/11 01:12:33;;;;;;;3.43;3.23;;;12.50;99.90;;;;;;5078758;28;20678;-62
2021/05/11 01:14:59;;;;;;;3.90;3.60;;;12.50;99.90;;;;;;5079145;28;20405;-62
2021/05/11 01:17:28;;;;;;;4.80;4.40;;;12.50;99.90;;;;;;5079621;28;20523;-62
2021/05/11 01:20:00;;;;;;;4.70;4.40;;;12.40;99.90;;;;;;5078249;28;20679;-62
2021/05/11 01:25:11;;;;;;;5.03;4.73;;;12.50;99.90;;;;;;5080554;28;20498;-61
2021/05/11 01:33:00;;;;;;;4.80;4.50;;;12.40;99.90;;;;;;5079581;28;20198;-62
2021/05/11 01:46:54;;;;;;;5.03;4.73;;;12.30;99.90;;;;;;5077846;28;20401;-61
2021/05/11 01:52:36;;;;;;;4.43;4.00;;;12.30;99.90;;;;;;5078224;28;20803;-62
2021/05/11 01:55:03;;;;;;;5.23;4.83;;;12.30;99.90;;;;;;5080260;28;20433;-61
2021/05/11 01:57:55;;;;;;;4.40;3.70;;;12.30;99.90;;;;;;5077475;28;20455;-62
2021/05/11 02:25:07;;;;;;;6.20;5.33;;;12.20;99.90;;;;;;5078465;28;20818;-62
2021/05/11 02:27:33;;;;;;;6.60;4.27;;;12.20;99.90;;;;;;5077825;28;20398;-62
2021/05/11 02:29:58;;;;;;;4.63;4.30;;;12.20;99.90;;;;;;5077832;28;20423;-62
2021/05/11 02:32:24;;;;;;;4.23;3.83;;;12.10;99.90;;;;;;5077799;28;20524;-62
2021/05/11 02:34:50;;;;;;;5.33;4.93;;;12.10;99.90;;;;;;5078649;28;20179;-62
2021/05/11 02:37:15;;;;;;;5.10;4.40;;;12.00;99.90;;;;;;5078007;28;20182;-62
2021/05/11 02:39:41;;;;;;;4.60;4.30;;;12.00;99.90;;;;;;5076908;28;20206;-62
2021/05/11 02:42:07;;;;;;;5.00;4.70;;;12.00;99.90;;;;;;5077216;28;20183;-61
2021/05/11 02:44:41;;;;;;;5.10;4.60;;;12.00;99.90;;;;;;5077534;28;20168;-62
2021/05/11 02:47:07;;;;;;;4.90;4.50;;;12.10;99.90;;;;;;5076885;28;20895;-62
2021/05/11 02:49:33;;;;;;;5.27;4.77;;;12.10;99.90;;;;;;5075894;28;20406;-62
2021/05/11 02:51:58;;;;;;;6.60;5.13;;;12.10;99.90;;;;;;5076835;28;20440;-63
2021/05/11 02:54:24;;;;;;;4.90;4.50;;;12.10;99.90;;;;;;5076388;28;20186;-62
2021/05/11 02:56:50;;;;;;;5.47;4.97;;;12.10;99.90;;;;;;5076231;28;20177;-62
2021/05/11 02:59:15;;;;;;;5.37;4.80;;;12.10;99.90;;;;;;5076218;28;20289;-62
2021/05/11 03:01:41;;;;;;;4.97;4.47;;;12.20;99.90;;;;;;5077058;28;20187;-62
2021/05/11 03:04:06;;;;;;;6.43;5.00;;;12.20;99.90;;;;;;5077619;28;20528;-61
2021/05/11 03:06:32;;;;;;;6.13;5.40;;;12.20;99.90;;;;;;5077144;28;20198;-62
2021/05/11 03:08:57;;;;;;;6.10;4.23;;;12.20;99.90;;;;;;5076168;28;20175;-62
2021/05/11 03:11:23;;;;;;;4.70;4.40;;;12.20;99.90;;;;;;5076774;28;20194;-62
2021/05/11 03:13:48;;;;;;;6.13;5.00;;;12.20;99.90;;;;;;5076217;28;20509;-62
2021/05/11 03:16:15;;;;;;;5.77;5.30;;;12.20;99.90;;;;;;5076139;28;20547;-62
2021/05/11 03:18:44;;;;;;;5.20;4.70;;;12.20;99.90;;;;;;5075557;28;20273;-62
2021/05/11 03:21:10;;;;;;;5.37;4.80;;;12.20;99.90;;;;;;5076140;28;20417;-62
2021/05/11 03:23:36;;;;;;;5.63;5.10;;;12.20;99.90;;;;;;5076346;28;20486;-62
2021/05/11 03:26:01;;;;;;;4.60;4.20;;;12.20;99.90;;;;;;5076070;28;20405;-61
2021/05/11 03:28:27;;;;;;;5.37;4.93;;;12.20;99.90;;;;;;5076192;28;20171;-62
2021/05/11 03:30:52;;;;;;;5.10;4.80;;;12.10;99.90;;;;;;5075929;28;20191;-62
2021/05/11 03:33:18;;;;;;;5.77;5.03;;;12.20;99.90;;;;;;5076270;28;20180;-61
2021/05/11 03:35:43;;;;;;;7.40;6.80;;;12.20;99.90;;;;;;5076063;28;20170;-61
2021/05/11 03:38:10;;;;;;;5.67;5.17;;;12.20;99.90;;;;;;5076114;28;20278;-61
2021/05/11 03:40:36;;;;;;;5.40;5.00;;;12.20;99.90;;;;;;5075750;28;20209;-62
2021/05/11 03:43:09;;;;;;;8.30;5.50;;;12.20;99.90;;;;;;5076096;28;20398;-61
2021/05/11 03:45:45;;;;;;;4.70;4.30;;;12.20;99.90;;;;;;5076593;28;20416;-62
2021/05/11 03:48:11;;;;;;;6.83;6.27;;;12.20;99.90;;;;;;5075682;28;20781;-62
2021/05/11 03:50:36;;;;;;;5.70;5.20;;;12.20;99.90;;;;;;5075945;28;20412;-62
2021/05/11 03:53:02;;;;;;;5.90;5.50;;;12.20;99.90;;;;;;5075748;28;20246;-61
2021/05/11 03:55:28;;;;;;;6.23;5.80;;;12.20;99.90;;;;;;5075808;28;20175;-61
2021/05/11 03:57:54;;;;;;;5.73;5.23;;;12.10;99.90;;;;;;5075507;28;20561;-63
2021/05/11 04:00:20;;;;;;;5.90;5.37;;;12.10;99.90;;;;;;5075369;28;20444;-62
2021/05/11 04:02:45;;;;;;;6.30;5.80;;;12.10;99.90;;;;;;5075670;28;20191;-61
2021/05/11 04:05:14;;;;;;;6.40;5.83;;;12.10;99.90;;;;;;5074770;28;20405;-61
2021/05/11 04:07:41;;;;;;;5.70;5.20;;;12.20;99.90;;;;;;5071625;28;20167;-60
2021/05/11 04:10:16;;;;;;;5.57;5.17;;;12.20;99.90;;;;;;5074586;28;20459;-60
2021/05/11 04:12:50;;;;;;;6.00;5.50;;;12.20;99.90;;;;;;5075801;28;20436;-60
2021/05/11 04:18:03;;;;;;;4.70;4.30;;;12.20;99.90;;;;;;5073944;28;20953;-60
2021/05/11 04:20:28;;;;;;;6.27;5.77;;;12.20;99.90;;;;;;5075339;28;20405;-61
2021/05/11 04:22:54;;;;;;;5.97;4.73;;;12.20;99.90;;;;;;5075369;28;20417;-60
2021/05/11 04:25:20;;;;;;;6.20;5.70;;;12.20;99.90;;;;;;5075477;28;20635;-61
2021/05/11 04:27:46;;;;;;;5.60;5.10;;;12.20;99.90;;;;;;5075514;28;20250;-61
2021/05/11 04:30:12;;;;;;;6.03;5.43;;;12.20;99.90;;;;;;5075177;28;20429;-61
2021/05/11 04:32:37;;;;;;;6.73;6.13;;;12.30;99.90;;;;;;5075354;28;20199;-60
2021/05/11 04:35:03;;;;;;;6.40;5.90;;;12.30;99.90;;;;;;5075313;28;20475;-61
2021/05/11 04:37:29;;;;;;;6.40;5.80;;;12.30;99.90;;;;;;5075039;28;20233;-61
2021/05/11 04:39:54;;;;;;;6.47;5.87;;;12.30;99.90;;;;;;5074974;28;20468;-61
2021/05/11 04:42:20;;;;;;;7.00;5.27;;;12.30;99.90;;;;;;5074941;28;20257;-61
2021/05/11 04:44:46;;;;;;;6.67;6.07;;;12.30;99.90;;;;;;5075023;28;20221;-61
2021/05/11 04:47:15;;;;;;;5.90;5.43;;;12.30;99.90;;;;;;5074763;28;20206;-61
2021/05/11 04:49:41;;;;;;;5.73;5.23;;;12.30;99.90;;;;;;5074887;28;20211;-60
2021/05/11 04:52:07;;;;;;;6.57;6.00;;;12.40;99.90;;;;;;5075034;28;20468;-60
2021/05/11 04:54:32;;;;;;;10.03;9.13;;;12.40;99.90;;;;;;5074730;28;20586;-61
2021/05/11 04:56:58;;;;;;;8.60;7.90;;;12.40;99.90;;;;;;5074765;28;20405;-61
2021/05/11 04:59:24;;;;;;;7.60;7.00;;;12.50;99.90;;;;;;5074280;28;20210;-61
2021/05/11 05:01:52;;;;;;;7.23;6.53;;;12.50;99.90;;;;;;5074396;28;20179;-61
2021/05/11 05:04:18;;;;;;;7.67;7.07;;;12.50;99.90;;;;;;5074979;28;20496;-61
2021/05/11 05:06:43;;;;;;;6.70;6.20;;;12.50;99.90;;;;;;5074533;28;20532;-60
2021/05/11 05:09:09;;;;;;;7.80;7.10;;;12.50;99.90;;;;;;5074392;28;20309;-61
2021/05/11 05:11:39;;;;;;;7.73;7.03;;;12.60;99.90;;;;;;5074411;28;20210;-61
2021/05/11 05:14:06;;;;;;;7.57;6.87;;;12.60;99.90;;;;;;5074533;28;20216;-60
2021/05/11 05:16:32;;;;;;;8.40;7.67;;;12.60;99.90;;;;;;5074212;28;20413;-61
2021/05/11 05:18:58;;;;;;;11.90;8.57;;;12.60;99.90;;;;;;5074119;28;20453;-61
2021/05/11 05:21:23;;;;;;;9.70;8.80;;;12.70;99.90;;;;;;5073811;28;20512;-61
2021/05/11 05:23:59;;;;;;;9.07;8.30;;;12.70;99.90;;;;;;5074238;28;20199;-61
2021/05/11 05:26:27;;;;;;;10.33;9.33;;;12.70;99.90;;;;;;5074358;28;20175;-61
2021/05/11 05:28:52;;;;;;;18.03;16.27;;;12.60;99.90;;;;;;5073800;28;20927;-61
2021/05/11 05:31:18;;;;;;;15.37;13.80;;;12.70;99.90;;;;;;5074222;28;20512;-61
2021/05/11 05:33:44;;;;;;;19.53;16.90;;;12.70;99.90;;;;;;5074103;28;20591;-61
2021/05/11 05:36:09;;;;;;;21.23;19.30;;;12.60;99.90;;;;;;5074168;28;20556;-60
2021/05/11 05:38:37;;;;;;;14.70;13.30;;;12.70;99.90;;;;;;5073709;28;20199;-61
2021/05/11 05:41:07;;;;;;;10.23;9.33;;;12.70;99.90;;;;;;5074046;28;20191;-61
2021/05/11 05:43:33;;;;;;;25.53;23.03;;;12.70;99.90;;;;;;5073830;28;20402;-61
2021/05/11 05:45:58;;;;;;;19.73;17.83;;;12.60;99.90;;;;;;5073814;28;20408;-61
2021/05/11 05:48:24;;;;;;;12.57;11.30;;;12.60;99.90;;;;;;5073669;28;20262;-61
2021/05/11 05:50:56;;;;;;;7.60;6.90;;;12.70;99.90;;;;;;5073863;28;20629;-61
2021/05/11 05:53:25;;;;;;;7.03;6.30;;;12.70;99.90;;;;;;5074053;28;20164;-61
2021/05/11 05:55:50;;;;;;;6.53;6.13;;;12.70;99.90;;;;;;5072347;28;20413;-62
2021/05/11 05:58:16;;;;;;;7.50;6.80;;;12.70;99.90;;;;;;5073124;28;20950;-61
2021/05/11 06:00:42;;;;;;;5.37;4.87;;;12.70;99.90;;;;;;5073553;28;20159;-61
2021/05/11 06:03:20;;;;;;;5.30;4.90;;;12.60;99.90;;;;;;5073709;28;20266;-61
2021/05/11 06:05:46;;;;;;;5.43;5.03;;;12.60;99.90;;;;;;5073681;28;20401;-62
2021/05/11 06:08:12;;;;;;;4.97;4.47;;;12.60;99.90;;;;;;5073143;28;20894;-61
2021/05/11 06:10:37;;;;;;;4.73;4.43;;;12.60;99.90;;;;;;5073279;28;20413;-61
2021/05/11 06:13:11;;;;;;;4.50;4.20;;;12.70;99.90;;;;;;5073239;28;20175;-61
2021/05/11 06:18:21;;;;;;;4.20;3.90;;;12.60;99.90;;;;;;5072951;28;20498;-61
2021/05/11 06:20:46;;;;;;;2.77;2.57;;;12.50;99.90;;;;;;5073206;28;20410;-59
2021/05/11 06:23:12;;;;;;;3.80;3.30;;;12.60;99.90;;;;;;5073112;28;20174;-61
2021/05/11 06:25:42;;;;;;;5.60;3.33;;;12.60;99.90;;;;;;5073115;28;20254;-61
2021/05/11 06:28:08;;;;;;;4.30;3.70;;;12.60;99.90;;;;;;5072794;28;20228;-59
2021/05/11 06:30:33;;;;;;;5.43;5.13;;;12.60;99.90;;;;;;5072751;28;20409;-61
2021/05/11 06:32:59;;;;;;;5.30;4.80;;;12.60;99.90;;;;;;5072043;28;20171;-60
2021/05/11 06:35:26;;;;;;;6.83;4.70;;;12.70;99.90;;;;;;5072951;28;20171;-61
2021/05/11 06:37:56;;;;;;;5.60;4.90;;;12.70;99.90;;;;;;5072542;28;20194;-62
2021/05/11 06:40:23;;;;;;;5.80;5.27;;;12.80;99.90;;;;;;5072763;28;20822;-61
2021/05/11 06:42:48;;;;;;;6.00;5.40;;;12.80;99.90;;;;;;5073175;28;20453;-61
2021/05/11 06:46:03;;;;;;;4.17;3.80;;;12.90;99.90;;;;;;5072657;28;20434;-61
2021/05/11 06:48:14;;;;;;;4.10;3.73;;;12.90;99.90;;;;;;5072159;28;20187;-61
2021/05/11 06:53:51;;;;;;;3.40;3.10;;;13.00;99.90;;;;;;5071195;28;20417;-61
2021/05/11 06:56:21;;;;;;;5.40;3.23;;;13.00;99.90;;;;;;5072466;28;20414;-61
2021/05/11 06:58:47;;;;;;;6.70;4.00;;;13.10;99.90;;;;;;5072004;28;20835;-61
2021/05/11 07:01:16;;;;;;;4.47;4.17;;;13.20;99.90;;;;;;5072369;28;20430;-61
2021/05/11 07:03:41;;;;;;;4.40;4.00;;;13.20;99.90;;;;;;5072615;28;20190;-62
2021/05/11 07:06:07;;;;;;;3.50;3.20;;;13.30;99.90;;;;;;5072686;28;20488;-61
2021/05/11 07:08:58;;;;;;;3.23;2.80;;;13.30;99.90;;;;;;5072004;28;20722;-61
2021/05/11 07:13:48;;;;;;;4.77;4.47;;;13.40;99.90;;;;;;5072280;28;20837;-61
2021/05/11 07:16:14;;;;;;;4.97;4.53;;;13.50;99.90;;;;;;5072345;28;20167;-62
2021/05/11 07:18:39;;;;;;;5.80;4.87;;;13.60;99.90;;;;;;5071686;28;20982;-62
2021/05/11 07:21:05;;;;;;;3.13;2.93;;;13.60;99.90;;;;;;5072081;28;20187;-62
2021/05/11 07:23:31;;;;;;;3.40;3.10;;;13.70;99.90;;;;;;5071929;28;20532;-61
2021/05/11 07:26:23;;;;;;;4.17;3.77;;;13.70;99.90;;;;;;5072055;28;20174;-60
2021/05/11 07:31:16;;;;;;;4.90;3.27;;;13.90;99.90;;;;;;5071944;28;20893;-61
2021/05/11 07:33:48;;;;;;;4.20;3.83;;;14.00;99.90;;;;;;5071838;28;20674;-61
2021/05/11 07:36:14;;;;;;;6.93;4.80;;;14.00;99.90;;;;;;5071990;28;20397;-61
2021/05/11 07:38:40;;;;;;;5.03;4.50;;;14.10;99.90;;;;;;5071548;28;20523;-61
2021/05/11 07:41:07;;;;;;;4.23;4.00;;;14.20;99.90;;;;;;5071802;28;20421;-61
2021/05/11 07:43:36;;;;;;;5.40;3.20;;;14.30;99.90;;;;;;5071686;28;20412;-61
2021/05/11 08:15:29;;;;;;;2.80;2.43;;;14.20;99.90;;;;;;5071495;28;20224;-62
2021/05/11 08:28:41;;;;;;;2.90;2.70;;;14.10;99.90;;;;;;5071319;28;20416;-62
2021/05/11 08:31:07;;;;;;;3.13;2.97;;;14.20;99.90;;;;;;5071393;28;20425;-62
2021/05/11 08:33:33;;;;;;;2.83;2.63;;;14.10;99.90;;;;;;5071474;28;20872;-61
2021/05/11 08:35:58;;;;;;;5.63;3.10;;;14.10;99.90;;;;;;5071302;28;20433;-61
2021/05/11 08:38:24;;;;;;;3.13;2.93;;;14.20;99.90;;;;;;5070928;28;20958;-61
2021/05/11 08:40:51;;;;;;;4.20;3.00;;;14.10;99.90;;;;;;5071262;28;20198;-62
2021/05/11 08:43:37;;;;;;;2.60;2.50;;;14.20;99.90;;;;;;5071245;28;20401;-62
2021/05/11 08:46:05;;;;;;;2.60;2.50;;;14.20;99.90;;;;;;5071286;28;20435;-61
2021/05/11 08:48:31;;;;;;;3.23;2.93;;;14.20;99.90;;;;;;5071006;28;20432;-62
2021/05/11 08:51:03;;;;;;;2.93;2.83;;;14.00;99.90;;;;;;5071165;28;20421;-61
2021/05/11 09:16:10;;;;;;;3.23;3.00;;;15.10;99.90;;;;;;5074514;28;20409;-62
2021/05/11 09:32:46;;;;;;;3.03;2.83;;;15.40;99.90;;;;;;5074271;28;20429;-62
2021/05/11 10:49:33;;;;;;;7.70;5.00;;;16.00;99.90;;;;;;5072491;28;20766;-62
2021/05/11 10:52:14;;;;;;;8.03;4.10;;;16.10;99.90;;;;;;5072422;28;20428;-62
2021/05/11 10:55:11;;;;;;;4.40;4.00;;;16.00;99.90;;;;;;5072526;28;20394;-60
2021/05/11 11:00:26;;;;;;;3.87;3.23;;;16.00;99.90;;;;;;5072549;28;20535;-62
2021/05/11 11:06:04;;;;;;;4.80;3.50;;;16.00;99.90;;;;;;5072497;28;20397;-62
2021/05/11 11:08:39;;;;;;;8.90;2.77;;;16.10;99.90;;;;;;5071979;28;20429;-62
2021/05/11 11:11:13;;;;;;;3.70;3.40;;;16.00;99.90;;;;;;5072231;28;20425;-62
2021/05/11 11:13:40;;;;;;;5.30;3.10;;;16.10;99.90;;;;;;5072309;28;20986;-62
2021/05/11 11:16:06;;;;;;;3.50;3.20;;;16.10;99.90;;;;;;5072339;28;20413;-62
2021/05/11 11:18:33;;;;;;;3.70;3.40;;;16.10;99.90;;;;;;5071390;28;20459;-62
2021/05/11 11:21:18;;;;;;;3.37;3.00;;;16.10;99.90;;;;;;5071962;28;20457;-62
2021/05/11 11:23:52;;;;;;;9.73;3.43;;;16.10;99.90;;;;;;5070843;28;20413;-62
2021/05/11 11:26:24;;;;;;;3.83;3.60;;;16.10;99.90;;;;;;5072087;28;20408;-62
2021/05/11 11:28:57;;;;;;;3.87;3.60;;;16.20;99.90;;;;;;5071906;28;20410;-62
2021/05/11 11:31:33;;;;;;;4.00;3.30;;;16.10;99.90;;;;;;5071917;28;20433;-62
2021/05/11 11:34:23;;;;;;;4.13;3.83;;;16.20;99.90;;;;;;5072428;28;20415;-62
2021/05/11 11:36:58;;;;;;;4.90;3.90;;;16.20;99.90;;;;;;5072160;28;20492;-62
2021/05/11 11:39:25;;;;;;;3.37;3.00;;;16.10;99.90;;;;;;5071803;28;20444;-62
2021/05/11 11:41:54;;;;;;;5.77;3.90;;;16.20;99.90;;;;;;5071927;28;20429;-62
2021/05/11 11:44:22;;;;;;;5.33;4.93;;;16.10;99.90;;;;;;5072271;28;20405;-62
2021/05/11 11:46:56;;;;;;;5.10;3.20;;;16.10;99.90;;;;;;5072622;28;20402;-63
2021/05/11 11:49:25;;;;;;;3.80;3.00;;;16.00;99.90;;;;;;5071801;28;20401;-62
2021/05/11 11:52:00;;;;;;;5.13;4.60;;;16.00;99.90;;;;;;5071905;28;20443;-61
2021/05/11 11:59:36;;;;;;;5.70;5.20;;;15.80;99.90;;;;;;5071454;28;20244;-62
2021/05/11 12:02:04;;;;;;;5.13;4.53;;;15.80;99.90;;;;;;5071623;28;20934;-62
2021/05/11 12:04:31;;;;;;;5.50;5.10;;;15.80;99.90;;;;;;5071906;28;20410;-61
2021/05/11 12:07:05;;;;;;;6.50;6.00;;;15.80;99.90;;;;;;5072213;28;20433;-63
2021/05/11 12:09:32;;;;;;;5.73;5.30;;;15.70;99.90;;;;;;5071097;28;20427;-62
2021/05/11 12:12:00;;;;;;;6.70;6.10;;;15.60;99.90;;;;;;5071853;28;20421;-61
2021/05/11 12:14:26;;;;;;;5.47;4.97;;;15.60;99.90;;;;;;5072301;28;20501;-62
2021/05/11 12:16:52;;;;;;;6.30;5.77;;;15.60;99.90;;;;;;5071331;28;20912;-62
2021/05/11 12:19:20;;;;;;;6.87;5.87;;;15.60;99.90;;;;;;5069209;28;20472;-62
2021/05/11 12:22:04;;;;;;;6.00;5.40;;;15.50;99.90;;;;;;5070566;28;20514;-62
2021/05/11 12:24:39;;;;;;;7.13;5.20;;;15.60;99.90;;;;;;5071759;28;20400;-62
2021/05/11 12:27:10;;;;;;;7.20;5.93;;;15.60;99.90;;;;;;5071597;28;20769;-60
2021/05/11 12:29:36;;;;;;;4.70;4.30;;;15.60;99.90;;;;;;5071521;28;20402;-62
2021/05/11 12:32:02;;;;;;;6.60;5.03;;;15.60;99.90;;;;;;5075412;28;20425;-62
2021/05/11 12:34:27;;;;;;;7.93;5.07;;;15.60;99.90;;;;;;5075661;28;20262;-62
2021/05/11 12:36:59;;;;;;;5.27;4.77;;;15.60;99.90;;;;;;5075681;28;20552;-60
2021/05/11 12:42:23;;;;;;;5.77;5.37;;;15.70;99.90;;;;;;5075168;28;20425;-62
2021/05/11 12:45:03;;;;;;;4.47;4.07;;;15.70;99.90;;;;;;5075815;28;20424;-62
2021/05/11 12:48:02;;;;;;;7.57;4.47;;;15.70;99.90;;;;;;5075637;28;20405;-62
2021/05/11 12:50:37;;;;;;;9.00;5.60;;;15.70;99.90;;;;;;5061019;28;20438;-62
2021/05/11 12:53:33;;;;;;;6.03;5.40;;;15.60;99.90;;;;;;5055661;28;20848;-62
2021/05/11 13:04:38;;;;;;;6.23;5.70;;;15.40;99.90;;;;;;5063400;28;20419;-60
2021/05/11 13:22:44;;;;;;;4.63;3.33;;;15.60;99.90;;;;;;5074167;28;20421;-62
2021/05/11 13:25:26;;;;;;;4.97;3.80;;;15.70;99.90;;;;;;5074053;28;20417;-61
2021/05/11 13:35:24;;;;;;;6.43;2.57;;;16.00;99.90;;;;;;5072948;28;20936;-61
2021/05/11 13:37:49;;;;;;;6.00;2.90;;;16.20;99.90;;;;;;5074121;28;20393;-61
2021/05/11 13:40:15;;;;;;;3.73;2.50;;;16.20;99.90;;;;;;5074056;28;20217;-62
2021/05/11 13:42:41;;;;;;;4.40;2.80;;;16.30;99.90;;;;;;5074033;28;20182;-60
2021/05/11 13:45:08;;;;;;;3.37;3.03;;;16.30;99.90;;;;;;5074492;28;20397;-62
2021/05/11 13:47:34;;;;;;;4.07;3.17;;;16.40;99.90;;;;;;5074200;28;20175;-62
2021/05/11 13:50:02;;;;;;;3.17;2.93;;;16.40;99.90;;;;;;5073503;28;20419;-62
2021/05/11 13:52:30;;;;;;;5.37;3.13;;;16.50;99.90;;;;;;5073388;28;20256;-60
2021/05/11 13:54:59;;;;;;;4.37;3.30;;;16.60;99.90;;;;;;5073645;28;20408;-62
2021/05/11 14:01:35;;;;;;;5.80;4.00;;;16.70;99.90;;;;;;5073739;28;20429;-62
2021/05/11 14:03:07;;;;;;;4.17;3.63;;;16.90;99.90;;;;;;5072389;28;20476;-62
2021/05/11 14:05:32;;;;;;;4.80;3.60;;;17.00;99.90;;;;;;5072263;28;20409;-62
2021/05/11 14:07:58;;;;;;;5.47;3.90;;;17.00;99.90;;;;;;5072684;28;20199;-62
2021/05/11 14:10:24;;;;;;;4.20;3.77;;;17.10;99.90;;;;;;5073535;28;20221;-62
2021/05/11 14:12:49;;;;;;;8.10;3.47;;;17.00;99.90;;;;;;5067764;28;20221;-61
2021/05/11 14:15:15;;;;;;;5.50;4.17;;;17.10;99.90;;;;;;5073294;28;20167;-62
2021/05/11 14:17:40;;;;;;;7.47;3.50;;;17.10;99.90;;;;;;5073529;28;20179;-62
2021/05/11 14:20:06;;;;;;;3.50;3.13;;;17.00;99.90;;;;;;5072888;28;20684;-62
2021/05/11 14:22:32;;;;;;;4.57;3.50;;;17.10;99.90;;;;;;5072501;28;20199;-62
2021/05/11 14:24:58;;;;;;;4.37;3.07;;;17.10;99.90;;;;;;5073535;28;20420;-63
2021/05/11 14:27:23;;;;;;;3.83;3.23;;;17.30;99.90;;;;;;5072299;28;20175;-62
2021/05/11 14:29:49;;;;;;;5.03;3.30;;;17.30;99.90;;;;;;5072745;28;20179;-62
2021/05/11 14:32:15;;;;;;;4.30;3.90;;;17.50;99.90;;;;;;5072635;28;20689;-62
2021/05/11 14:34:41;;;;;;;7.27;3.13;;;17.60;99.90;;;;;;5073196;28;20409;-62
2021/05/11 14:37:07;;;;;;;5.10;2.90;;;17.50;99.90;;;;;;5071719;28;20190;-62
2021/05/11 14:39:32;;;;;;;2.97;2.77;;;17.50;99.90;;;;;;5058688;28;21016;-62
2021/05/11 14:41:58;;;;;;;3.33;2.90;;;17.50;99.90;;;;;;5072088;28;20195;-62
2021/05/11 14:44:25;;;;;;;2.13;1.93;;;17.40;99.90;;;;;;5072569;28;20257;-62
2021/05/11 14:46:52;;;;;;;2.47;2.23;;;17.20;99.90;;;;;;5072688;28;20565;-62
2021/05/11 14:49:18;;;;;;;1.70;1.60;;;17.20;99.90;;;;;;5072209;28;20448;-62
2021/05/11 14:51:45;;;;;;;1.70;1.60;;;17.10;99.90;;;;;;5071779;28;20860;-62
2021/05/11 14:54:11;;;;;;;3.27;2.97;;;17.00;99.20;;;;;;5072353;28;20401;-62
2021/05/11 14:56:40;;;;;;;3.03;2.03;;;16.90;99.60;;;;;;5072983;28;20413;-61
2021/05/11 14:59:11;;;;;;;2.10;1.90;;;16.80;99.50;;;;;;5072192;28;20453;-60
2021/05/11 15:01:37;;;;;;;1.50;1.50;;;16.70;99.90;;;;;;5072751;28;20433;-62
2021/05/11 15:04:03;;;;;;;2.67;1.87;;;16.60;99.90;;;;;;5072678;28;20402;-62
2021/05/11 15:06:29;;;;;;;1.83;1.60;;;16.50;99.90;;;;;;5072575;28;20421;-62
2021/05/11 15:08:55;;;;;;;2.70;2.20;;;16.40;99.90;;;;;;5072251;28;20171;-62
2021/05/11 15:11:21;;;;;;;2.07;1.60;;;16.20;99.90;;;;;;5072634;28;20429;-62
2021/05/11 15:13:47;;;;;;;2.20;2.00;;;16.10;99.90;;;;;;5072488;28;20940;-62
2021/05/11 15:16:20;;;;;;;2.07;1.87;;;16.00;99.90;;;;;;5072633;28;20186;-61
2021/05/11 15:18:45;;;;;;;2.20;2.00;;;16.00;99.90;;;;;;5071966;28;20453;-62
2021/05/11 15:21:11;;;;;;;5.17;2.30;;;15.90;99.90;;;;;;5072374;28;20948;-61
2021/05/11 15:23:37;;;;;;;2.00;1.90;;;15.90;99.90;;;;;;5072503;28;20539;-60
2021/05/11 15:26:03;;;;;;;2.93;2.30;;;15.80;99.90;;;;;;5072325;28;20225;-62
2021/05/11 15:28:29;;;;;;;4.77;2.40;;;15.70;99.90;;;;;;5071732;28;20457;-62
2021/05/11 15:30:55;;;;;;;5.87;2.17;;;15.60;99.90;;;;;;5072263;28;20453;-62
2021/05/11 15:33:21;;;;;;;3.90;2.00;;;15.60;99.90;;;;;;5071919;28;20178;-60
2021/05/11 15:35:46;;;;;;;3.33;2.17;;;15.50;99.90;;;;;;5072258;28;20401;-62
2021/05/11 15:38:12;;;;;;;2.10;2.00;;;15.50;99.90;;;;;;5071599;28;20175;-62
2021/05/11 15:40:41;;;;;;;2.20;2.00;;;15.50;99.90;;;;;;5072148;28;20171;-61
2021/05/11 15:43:07;;;;;;;3.03;2.33;;;15.40;99.90;;;;;;5072002;28;20913;-62
2021/05/11 15:45:34;;;;;;;4.60;2.33;;;15.40;99.90;;;;;;5071850;28;20405;-62
2021/05/11 15:48:06;;;;;;;2.33;2.20;;;15.40;99.90;;;;;;5072222;28;20444;-61
2021/05/11 15:50:33;;;;;;;2.83;2.60;;;15.50;99.90;;;;;;5071894;28;20889;-62
2021/05/11 15:53:03;;;;;;;2.20;2.00;;;15.40;99.90;;;;;;5071965;28;20401;-62
2021/05/11 15:55:33;;;;;;;2.80;2.33;;;15.30;99.90;;;;;;5071889;28;20433;-62
2021/05/11 15:58:00;;;;;;;3.53;3.23;;;15.20;99.90;;;;;;5071697;28;20979;-62
2021/05/11 16:00:26;;;;;;;4.00;3.63;;;15.20;99.90;;;;;;5071756;28;20983;-61
2021/05/11 16:02:51;;;;;;;3.80;3.40;;;15.20;99.90;;;;;;5072060;28;20429;-60
2021/05/11 16:05:20;;;;;;;3.90;3.60;;;15.10;99.90;;;;;;5075458;28;20413;-60
2021/05/11 16:07:45;;;;;;;5.97;3.67;;;15.00;99.90;;;;;;5076223;28;20178;-60
2021/05/11 16:10:12;;;;;;;4.30;3.90;;;15.10;99.90;;;;;;5076274;28;20409;-61
2021/05/11 16:12:37;;;;;;;3.93;3.20;;;15.00;99.90;;;;;;5075788;28;20195;-60
2021/05/11 16:15:12;;;;;;;7.53;3.83;;;15.10;99.90;;;;;;5076167;28;20424;-62
2021/05/11 16:17:38;;;;;;;4.00;3.70;;;15.10;99.90;;;;;;5076035;28;20186;-63
2021/05/11 16:20:06;;;;;;;4.00;3.70;;;15.10;99.90;;;;;;5075651;28;20956;-62
2021/05/11 16:22:36;;;;;;;4.83;4.13;;;15.10;99.90;;;;;;5076100;28;20425;-69
2021/05/11 16:25:07;;;;;;;6.93;4.30;;;15.10;99.90;;;;;;5075537;28;20897;-62
2021/05/11 16:27:33;;;;;;;5.00;4.47;;;15.10;99.90;;;;;;5075686;28;20401;-62
2021/05/11 16:29:59;;;;;;;5.37;4.50;;;15.20;99.90;;;;;;5075175;28;20760;-61
2021/05/11 16:32:24;;;;;;;4.80;4.33;;;15.10;99.90;;;;;;5075385;28;20486;-62
2021/05/11 16:34:50;;;;;;;4.00;3.70;;;15.10;99.90;;;;;;5075487;28;20175;-62
2021/05/11 16:37:16;;;;;;;4.30;4.00;;;14.90;99.90;;;;;;5075246;28;20573;-62
2021/05/11 16:39:42;;;;;;;4.57;2.90;;;14.80;99.90;;;;;;5074844;28;20452;-62
2021/05/11 16:42:08;;;;;;;4.87;4.20;;;14.70;99.90;;;;;;5075055;28;20183;-61
2021/05/11 16:44:35;;;;;;;5.17;3.63;;;14.50;99.90;;;;;;5075001;28;20415;-60
2021/05/11 16:47:01;;;;;;;3.93;3.50;;;14.40;99.90;;;;;;5075419;28;20571;-61
2021/05/11 16:49:27;;;;;;;4.00;3.63;;;14.10;99.90;;;;;;5074727;28;20776;-61
2021/05/11 16:51:53;;;;;;;4.13;3.40;;;14.00;99.90;;;;;;5074895;28;20421;-62
2021/05/11 16:54:18;;;;;;;4.53;3.93;;;14.00;99.90;;;;;;5074740;28;20207;-60
2021/05/11 16:56:45;;;;;;;4.23;3.70;;;13.90;99.90;;;;;;5075255;28;20413;-62
2021/05/11 16:59:10;;;;;;;3.60;3.30;;;13.90;99.90;;;;;;5074408;28;20218;-61
2021/05/11 17:01:36;;;;;;;3.50;3.20;;;13.90;99.90;;;;;;5074732;28;20944;-62
2021/05/11 17:04:03;;;;;;;4.20;3.90;;;13.80;99.90;;;;;;5074720;28;20662;-60
2021/05/11 17:06:33;;;;;;;5.83;3.57;;;13.80;99.90;;;;;;5074695;28;20441;-61
2021/05/11 17:08:59;;;;;;;3.77;3.30;;;13.70;99.90;;;;;;5074315;28;20405;-62
2021/05/11 17:11:24;;;;;;;4.53;4.13;;;13.70;99.90;;;;;;5074530;28;20512;-62